PWSweather.com
Personal Weather Stations
Station Observations
SBERGENWX
Wood Ridge, NJ 07075

Wood Ridge, NJ 07075

Lat: 40.851667, Lon: -74.088131

Elevation: 177

Station Type: Davis Vantage Vue

http://201weather.com/

High Low Average
Temperature 32.3°F0.2°C 22.7°F-5.2°C 27.4°F-2.6°C
Dew Point 20.0°F-6.7°C 4.5°F-15.3°C 9.5°F-12.5°C
Winds 4.6 mph 7.4 kmh Calm Calm 1.0 mph S1.6 kmh S
Wind Gusts 6.9 mph11.1 kmh -- 3.0 mph4.8 kmh
Humidity 60% 33% 47%
Pressure 30.55 in1034.5 mb 30.26 in1024.7 mb -
Precipitation 0.00 in0.0 mm - -
Hour Temp Dew Point Humidity Winds Wind Gusts Pressure Precip Precip Rate Daily Precip Total
12:00 AM 30.2°F-1.0°C 16.0°F-8.9°C 55% Calm Calm 2.3 mph3.7 kmh 30.27 in1025.1 mb - 0.00 in0.0 mm 0.00 in0.0 mm
12:15 AM 29.8°F-1.2°C 15.6°F-9.1°C 55% 1.2 mph NNW1.9 kmh NNW 6.9 mph11.1 kmh 30.28 in1025.4 mb - 0.00 in0.0 mm 0.00 in0.0 mm
12:30 AM 29.5°F-1.4°C 15.3°F-9.3°C 55% 3.5 mph NW5.6 kmh NW 4.6 mph7.4 kmh 30.29 in1025.7 mb - 0.00 in0.0 mm 0.00 in0.0 mm
12:45 AM 29.2°F-1.6°C 14.6°F-9.7°C 54% 3.5 mph NW5.6 kmh NW 10.4 mph16.7 kmh 30.29 in1025.7 mb - 0.01 in0.3 mm 0.01 in0.3 mm
01:00 AM 28.8°F-1.8°C 13.8°F-10.1°C 53% 3.5 mph NNW5.6 kmh NNW 6.9 mph11.1 kmh 30.30 in1026.1 mb - 0.01 in0.3 mm 0.02 in0.5 mm
01:15 AM 28.5°F-1.9°C 13.9°F-10.1°C 54% 1.2 mph NNW1.9 kmh NNW 4.6 mph7.4 kmh 30.31 in1026.4 mb - 0.01 in0.3 mm 0.03 in0.8 mm
01:30 AM 28.1°F-2.2°C 13.6°F-10.2°C 54% 2.3 mph N3.7 kmh N 4.6 mph7.4 kmh 30.32 in1026.8 mb - 0.01 in0.3 mm 0.04 in1.0 mm
01:45 AM 27.7°F-2.4°C 13.2°F-10.4°C 54% 1.2 mph NW1.9 kmh NW 3.5 mph5.6 kmh 30.33 in1027.1 mb - 0.00 in0.0 mm 0.04 in1.0 mm
02:00 AM 27.5°F-2.5°C 13.4°F-10.3°C 55% Calm Calm 2.3 mph3.7 kmh 30.33 in1027.1 mb - 0.00 in0.0 mm 0.04 in1.0 mm
02:15 AM 27.1°F-2.7°C 13.9°F-10.1°C 57% 1.2 mph NW1.9 kmh NW 3.5 mph5.6 kmh 30.34 in1027.4 mb - 0.00 in0.0 mm 0.04 in1.0 mm
02:30 AM 26.9°F-2.8°C 13.3°F-10.4°C 56% 1.2 mph NNW1.9 kmh NNW 1.2 mph1.9 kmh 30.35 in1027.8 mb - 0.00 in0.0 mm 0.04 in1.0 mm
02:45 AM 26.7°F-2.9°C 12.7°F-10.7°C 55% 1.2 mph NW1.9 kmh NW 4.6 mph7.4 kmh 30.36 in1028.1 mb - 0.00 in0.0 mm 0.04 in1.0 mm
03:00 AM 26.9°F-2.8°C 12.0°F-11.1°C 53% 1.2 mph NW1.9 kmh NW 3.5 mph5.6 kmh 30.37 in1028.4 mb - 0.00 in0.0 mm 0.04 in1.0 mm
03:15 AM 26.6°F-3.0°C 13.0°F-10.6°C 56% Calm Calm 1.2 mph1.9 kmh 30.37 in1028.4 mb - 0.00 in0.0 mm 0.04 in1.0 mm
03:30 AM 26.4°F-3.1°C 12.4°F-10.9°C 55% Calm Calm 3.5 mph5.6 kmh 30.39 in1029.1 mb - 0.00 in0.0 mm 0.04 in1.0 mm
03:45 AM 26.2°F-3.2°C 11.8°F-11.2°C 54% 1.2 mph NW1.9 kmh NW 3.5 mph5.6 kmh 30.38 in1028.8 mb - 0.00 in0.0 mm 0.04 in1.0 mm
04:00 AM 26.0°F-3.3°C 11.2°F-11.6°C 53% 1.2 mph NW1.9 kmh NW 2.3 mph3.7 kmh 30.39 in1029.1 mb - 0.00 in0.0 mm 0.04 in1.0 mm
04:15 AM 25.7°F-3.5°C 10.9°F-11.7°C 53% 1.2 mph NW1.9 kmh NW 3.5 mph5.6 kmh 30.39 in1029.1 mb - 0.00 in0.0 mm 0.04 in1.0 mm
04:30 AM 25.5°F-3.6°C 11.1°F-11.6°C 54% 1.2 mph NNW1.9 kmh NNW 1.2 mph1.9 kmh 30.38 in1028.8 mb - 0.00 in0.0 mm 0.04 in1.0 mm
04:45 AM 25.2°F-3.8°C 11.3°F-11.5°C 55% Calm Calm 1.2 mph1.9 kmh 30.39 in1029.1 mb - 0.00 in0.0 mm 0.04 in1.0 mm
05:00 AM 25.2°F-3.8°C 10.4°F-12.0°C 53% 1.2 mph WNW1.9 kmh WNW 3.5 mph5.6 kmh 30.39 in1029.1 mb - 0.00 in0.0 mm 0.04 in1.0 mm
05:15 AM 25.0°F-3.9°C 10.3°F-12.1°C 53% 1.2 mph NNW1.9 kmh NNW 3.5 mph5.6 kmh 30.40 in1029.5 mb - 0.00 in0.0 mm 0.04 in1.0 mm
05:30 AM 24.9°F-3.9°C 9.7°F-12.4°C 52% 1.2 mph NW1.9 kmh NW 1.2 mph1.9 kmh 30.39 in1029.1 mb - 0.00 in0.0 mm 0.04 in1.0 mm
05:45 AM 24.6°F-4.1°C 9.5°F-12.5°C 52% 1.2 mph NW1.9 kmh NW 2.3 mph3.7 kmh 30.41 in1029.8 mb - 0.00 in0.0 mm 0.04 in1.0 mm
06:00 AM 24.4°F-4.2°C 9.7°F-12.4°C 53% Calm Calm 2.3 mph3.7 kmh 30.41 in1029.8 mb - 0.00 in0.0 mm 0.04 in1.0 mm
06:15 AM 24.2°F-4.3°C 9.5°F-12.5°C 53% Calm Calm 1.2 mph1.9 kmh 30.41 in1029.8 mb - 0.00 in0.0 mm 0.04 in1.0 mm
06:30 AM 23.8°F-4.6°C 9.1°F-12.7°C 53% 2.3 mph NW3.7 kmh NW 4.6 mph7.4 kmh 30.42 in1030.1 mb - 0.00 in0.0 mm 0.04 in1.0 mm
06:45 AM 23.6°F-4.7°C 9.4°F-12.6°C 54% Calm Calm 1.2 mph1.9 kmh 30.43 in1030.5 mb - 0.00 in0.0 mm 0.04 in1.0 mm
07:00 AM 23.3°F-4.8°C 9.5°F-12.5°C 55% Calm Calm 1.2 mph1.9 kmh 30.43 in1030.5 mb - 0.00 in0.0 mm 0.04 in1.0 mm
07:15 AM 23.1°F-4.9°C 9.7°F-12.4°C 56% Calm Calm 2.3 mph3.7 kmh 30.44 in1030.8 mb - 0.00 in0.0 mm 0.04 in1.0 mm
07:30 AM 22.9°F-5.1°C 9.5°F-12.5°C 56% 1.2 mph WNW1.9 kmh WNW 3.5 mph5.6 kmh 30.46 in1031.5 mb - 0.00 in0.0 mm 0.04 in1.0 mm
07:45 AM 22.7°F-5.2°C 10.1°F-12.2°C 58% 1.2 mph NW1.9 kmh NW 2.3 mph3.7 kmh 30.47 in1031.8 mb - 0.00 in0.0 mm 0.04 in1.0 mm
08:00 AM 22.7°F-5.2°C 10.5°F-11.9°C 59% Calm Calm -- 30.47 in1031.8 mb - 0.00 in0.0 mm 0.04 in1.0 mm
08:15 AM 22.7°F-5.2°C 10.1°F-12.2°C 58% Calm Calm 2.3 mph3.7 kmh 30.48 in1032.2 mb - 0.00 in0.0 mm 0.04 in1.0 mm
08:30 AM 22.8°F-5.1°C 10.2°F-12.1°C 58% Calm Calm 2.3 mph3.7 kmh 30.48 in1032.2 mb - 0.00 in0.0 mm 0.04 in1.0 mm
08:45 AM 22.9°F-5.1°C 9.9°F-12.3°C 57% 1.2 mph NNW1.9 kmh NNW 3.5 mph5.6 kmh 30.49 in1032.5 mb - 0.00 in0.0 mm 0.04 in1.0 mm
09:00 AM 22.9°F-5.1°C 10.3°F-12.1°C 58% Calm Calm 1.2 mph1.9 kmh 30.50 in1032.8 mb - 0.00 in0.0 mm 0.04 in1.0 mm
09:15 AM 23.1°F-4.9°C 10.1°F-12.2°C 57% 1.2 mph WNW1.9 kmh WNW 3.5 mph5.6 kmh 30.52 in1033.5 mb - 0.00 in0.0 mm 0.04 in1.0 mm
09:30 AM 23.4°F-4.8°C 10.4°F-12.0°C 57% Calm Calm 2.3 mph3.7 kmh 30.53 in1033.9 mb - 0.00 in0.0 mm 0.04 in1.0 mm
09:45 AM 23.5°F-4.7°C 9.7°F-12.4°C 55% Calm Calm 1.2 mph1.9 kmh 30.53 in1033.9 mb - 0.00 in0.0 mm 0.04 in1.0 mm
10:00 AM 23.7°F-4.6°C 9.5°F-12.5°C 54% 3.5 mph NNW5.6 kmh NNW 6.9 mph11.1 kmh 30.53 in1033.9 mb - 0.00 in0.0 mm 0.04 in1.0 mm
10:15 AM 24.1°F-4.4°C 10.2°F-12.1°C 55% 2.3 mph N3.7 kmh N 5.8 mph9.3 kmh 30.54 in1034.2 mb - 0.00 in0.0 mm 0.04 in1.0 mm
10:30 AM 24.5°F-4.2°C 10.7°F-11.8°C 55% 1.2 mph N1.9 kmh N 3.5 mph5.6 kmh 30.54 in1034.2 mb - 0.00 in0.0 mm 0.04 in1.0 mm
10:45 AM 24.9°F-3.9°C 10.6°F-11.9°C 54% 1.2 mph NNE1.9 kmh NNE 3.5 mph5.6 kmh 30.55 in1034.5 mb - 0.00 in0.0 mm 0.04 in1.0 mm
11:00 AM 24.9°F-3.9°C 10.2°F-12.1°C 53% 1.2 mph N1.9 kmh N 3.5 mph5.6 kmh 30.55 in1034.5 mb - 0.00 in0.0 mm 0.04 in1.0 mm
11:15 AM 25.0°F-3.9°C 10.7°F-11.8°C 54% 1.2 mph NE1.9 kmh NE 3.5 mph5.6 kmh 30.54 in1034.2 mb - 0.00 in0.0 mm 0.04 in1.0 mm
11:30 AM 25.1°F-3.8°C 10.3°F-12.1°C 53% Calm Calm 1.2 mph1.9 kmh 30.53 in1033.9 mb - 0.00 in0.0 mm 0.04 in1.0 mm
11:45 AM 25.1°F-3.8°C 9.9°F-12.3°C 52% 2.3 mph NE3.7 kmh NE 5.8 mph9.3 kmh 30.53 in1033.9 mb - 0.00 in0.0 mm 0.04 in1.0 mm
12:00 PM 25.3°F-3.7°C 9.7°F-12.4°C 51% 2.3 mph N3.7 kmh N 3.5 mph5.6 kmh 30.51 in1033.2 mb - 0.00 in0.0 mm 0.04 in1.0 mm
12:15 PM 25.7°F-3.5°C 9.6°F-12.4°C 50% Calm Calm 2.3 mph3.7 kmh 30.50 in1032.8 mb - 0.00 in0.0 mm 0.04 in1.0 mm
12:30 PM 26.0°F-3.3°C 9.5°F-12.5°C 49% 2.3 mph N3.7 kmh N 4.6 mph7.4 kmh 30.49 in1032.5 mb - 0.00 in0.0 mm 0.04 in1.0 mm
12:45 PM 26.2°F-3.2°C 8.7°F-12.9°C 47% 4.6 mph NNE7.4 kmh NNE 6.9 mph11.1 kmh 30.47 in1031.8 mb - 0.00 in0.0 mm 0.04 in1.0 mm
01:00 PM 27.0°F-2.8°C 7.9°F-13.4°C 44% 3.5 mph N5.6 kmh N 5.8 mph9.3 kmh 30.46 in1031.5 mb - 0.00 in0.0 mm 0.04 in1.0 mm
01:15 PM 27.4°F-2.6°C 8.3°F-13.2°C 44% 2.3 mph NNW3.7 kmh NNW 6.9 mph11.1 kmh 30.45 in1031.2 mb - 0.00 in0.0 mm 0.04 in1.0 mm
01:30 PM 28.0°F-2.2°C 6.8°F-14.0°C 40% 4.6 mph N7.4 kmh N 6.9 mph11.1 kmh 30.44 in1030.8 mb - 0.00 in0.0 mm 0.04 in1.0 mm
01:45 PM 28.4°F-2.0°C 5.9°F-14.5°C 38% 2.3 mph N3.7 kmh N 5.8 mph9.3 kmh 30.44 in1030.8 mb - 0.00 in0.0 mm 0.04 in1.0 mm
02:00 PM 28.7°F-1.8°C 6.8°F-14.0°C 39% 1.2 mph NE1.9 kmh NE 5.8 mph9.3 kmh 30.44 in1030.8 mb - 0.00 in0.0 mm 0.04 in1.0 mm
02:15 PM 29.6°F-1.3°C 7.7°F-13.5°C 39% Calm Calm 1.2 mph1.9 kmh 30.44 in1030.8 mb - 0.00 in0.0 mm 0.04 in1.0 mm
02:30 PM 29.9°F-1.2°C 5.5°F-14.7°C 35% 2.3 mph NE3.7 kmh NE 5.8 mph9.3 kmh 30.43 in1030.5 mb - 0.00 in0.0 mm 0.04 in1.0 mm
02:45 PM 29.3°F-1.5°C 5.0°F-15.0°C 35% 3.5 mph NE5.6 kmh NE 4.6 mph7.4 kmh 30.43 in1030.5 mb - 0.00 in0.0 mm 0.04 in1.0 mm
03:00 PM 29.7°F-1.3°C 6.0°F-14.4°C 36% 1.2 mph NE1.9 kmh NE 2.3 mph3.7 kmh 30.43 in1030.5 mb - 0.00 in0.0 mm 0.04 in1.0 mm
03:15 PM 30.0°F-1.1°C 5.0°F-15.0°C 34% 1.2 mph N1.9 kmh N 1.2 mph1.9 kmh 30.44 in1030.8 mb - 0.00 in0.0 mm 0.04 in1.0 mm
03:30 PM 30.2°F-1.0°C 4.5°F-15.3°C 33% 1.2 mph ENE1.9 kmh ENE 3.5 mph5.6 kmh 30.45 in1031.2 mb - 0.00 in0.0 mm 0.04 in1.0 mm
03:45 PM 29.8°F-1.2°C 4.8°F-15.1°C 34% 2.3 mph N3.7 kmh N 3.5 mph5.6 kmh 30.44 in1030.8 mb - 0.00 in0.0 mm 0.04 in1.0 mm
04:00 PM 29.8°F-1.2°C 4.8°F-15.1°C 34% Calm Calm 1.2 mph1.9 kmh 30.44 in1030.8 mb - 0.00 in0.0 mm 0.04 in1.0 mm
04:15 PM 30.0°F-1.1°C 5.0°F-15.0°C 34% Calm Calm 1.2 mph1.9 kmh 30.43 in1030.5 mb - 0.00 in0.0 mm 0.04 in1.0 mm
04:30 PM 29.9°F-1.2°C 5.5°F-14.7°C 35% 1.2 mph NE1.9 kmh NE 1.2 mph1.9 kmh 30.41 in1029.8 mb - 0.00 in0.0 mm 0.04 in1.0 mm
04:45 PM 29.9°F-1.2°C 5.5°F-14.7°C 35% Calm Calm 1.2 mph1.9 kmh 30.41 in1029.8 mb - 0.00 in0.0 mm 0.04 in1.0 mm
05:00 PM 29.5°F-1.4°C 5.2°F-14.9°C 35% Calm Calm -- 30.42 in1030.1 mb - 0.00 in0.0 mm 0.04 in1.0 mm
05:15 PM 29.3°F-1.5°C 5.0°F-15.0°C 35% Calm Calm -- 30.42 in1030.1 mb - 0.00 in0.0 mm 0.04 in1.0 mm
05:30 PM 29.2°F-1.6°C 4.9°F-15.1°C 35% Calm Calm -- 30.42 in1030.1 mb - 0.00 in0.0 mm 0.04 in1.0 mm
05:45 PM 29.3°F-1.5°C 5.6°F-14.7°C 36% Calm Calm -- 30.42 in1030.1 mb - 0.00 in0.0 mm 0.04 in1.0 mm
06:00 PM 29.4°F-1.4°C 5.7°F-14.6°C 36% Calm Calm -- 30.41 in1029.8 mb - 0.00 in0.0 mm 0.04 in1.0 mm
06:15 PM 29.5°F-1.4°C 6.4°F-14.2°C 37% 1.2 mph SE1.9 kmh SE 3.5 mph5.6 kmh 30.40 in1029.5 mb - 0.00 in0.0 mm 0.04 in1.0 mm
06:30 PM 29.3°F-1.5°C 6.2°F-14.3°C 37% Calm Calm -- 30.40 in1029.5 mb - 0.00 in0.0 mm 0.04 in1.0 mm
06:45 PM 29.2°F-1.6°C 5.5°F-14.7°C 36% Calm Calm -- 30.41 in1029.8 mb - 0.00 in0.0 mm 0.04 in1.0 mm
07:00 PM 29.2°F-1.6°C 6.1°F-14.4°C 37% Calm Calm 1.2 mph1.9 kmh 30.39 in1029.1 mb - 0.00 in0.0 mm 0.04 in1.0 mm
07:15 PM 29.1°F-1.6°C 6.0°F-14.4°C 37% Calm Calm 2.3 mph3.7 kmh 30.39 in1029.1 mb - 0.00 in0.0 mm 0.04 in1.0 mm
07:30 PM 29.1°F-1.6°C 5.5°F-14.7°C 36% 1.2 mph SE1.9 kmh SE 3.5 mph5.6 kmh 30.38 in1028.8 mb - 0.00 in0.0 mm 0.04 in1.0 mm
07:45 PM 29.0°F-1.7°C 4.7°F-15.2°C 35% Calm Calm -- 30.39 in1029.1 mb - 0.00 in0.0 mm 0.04 in1.0 mm
08:00 PM 29.2°F-1.6°C 6.7°F-14.1°C 38% Calm Calm -- 30.38 in1028.8 mb - 0.00 in0.0 mm 0.04 in1.0 mm
08:15 PM 29.2°F-1.6°C 7.3°F-13.7°C 39% Calm Calm -- 30.38 in1028.8 mb - 0.00 in0.0 mm 0.04 in1.0 mm
08:30 PM 29.2°F-1.6°C 6.7°F-14.1°C 38% Calm Calm -- 30.37 in1028.4 mb - 0.00 in0.0 mm 0.04 in1.0 mm
08:45 PM 29.3°F-1.5°C 6.8°F-14.0°C 38% Calm Calm 1.2 mph1.9 kmh 30.36 in1028.1 mb - 0.00 in0.0 mm 0.04 in1.0 mm
09:00 PM 29.4°F-1.4°C 6.9°F-13.9°C 38% Calm Calm 1.2 mph1.9 kmh 30.34 in1027.4 mb - 0.00 in0.0 mm 0.04 in1.0 mm
09:15 PM 29.4°F-1.4°C 6.3°F-14.3°C 37% Calm Calm -- 30.36 in1028.1 mb - 0.00 in0.0 mm 0.04 in1.0 mm
09:30 PM 29.6°F-1.3°C 7.6°F-13.6°C 39% Calm Calm -- 30.36 in1028.1 mb - 0.00 in0.0 mm 0.04 in1.0 mm
09:45 PM 29.6°F-1.3°C 7.6°F-13.6°C 39% Calm Calm -- 30.36 in1028.1 mb - 0.00 in0.0 mm 0.04 in1.0 mm
10:00 PM 30.0°F-1.1°C 8.6°F-13.0°C 40% Calm Calm -- 30.35 in1027.8 mb - 0.00 in0.0 mm 0.04 in1.0 mm
10:15 PM 30.2°F-1.0°C 9.8°F-12.3°C 42% 1.2 mph SE1.9 kmh SE 3.5 mph5.6 kmh 30.34 in1027.4 mb - 0.00 in0.0 mm 0.04 in1.0 mm
10:30 PM 30.5°F-0.8°C 11.7°F-11.3°C 45% Calm Calm 3.5 mph5.6 kmh 30.34 in1027.4 mb - 0.00 in0.0 mm 0.04 in1.0 mm
10:45 PM 30.8°F-0.7°C 13.4°F-10.3°C 48% 1.2 mph SE1.9 kmh SE 2.3 mph3.7 kmh 30.32 in1026.8 mb - 0.00 in0.0 mm 0.04 in1.0 mm
11:00 PM 31.1°F-0.5°C 15.1°F-9.4°C 51% 2.3 mph S3.7 kmh S 4.6 mph7.4 kmh 30.32 in1026.8 mb - 0.00 in0.0 mm 0.04 in1.0 mm
11:15 PM 31.4°F-0.3°C 15.8°F-9.0°C 52% 3.5 mph S5.6 kmh S 3.5 mph5.6 kmh 30.32 in1026.8 mb - 0.00 in0.0 mm 0.04 in1.0 mm
11:30 PM 31.6°F-0.2°C 16.4°F-8.7°C 53% 2.3 mph S3.7 kmh S 5.8 mph9.3 kmh 30.29 in1025.7 mb - 0.00 in0.0 mm 0.04 in1.0 mm
11:45 PM 31.5°F-0.3°C 16.3°F-8.7°C 53% 1.2 mph S1.9 kmh S 3.5 mph5.6 kmh 30.28 in1025.4 mb - 0.00 in0.0 mm 0.04 in1.0 mm